createdAt,value
2019-05-14T00:04:25.175Z,101657.95
2019-05-14T00:14:37.245Z,101649.61
2019-05-14T00:24:34.151Z,101632.12
2019-05-14T00:34:37.729Z,101630.42
2019-05-14T00:44:53.816Z,101624.23
2019-05-14T00:54:47.750Z,101623.70
2019-05-14T01:04:51.864Z,101614.57
2019-05-14T01:15:07.058Z,101612.28
2019-05-14T01:25:01.572Z,101611.79
2019-05-14T01:35:07.277Z,101607.02
2019-05-14T01:45:23.947Z,101599.55
2019-05-14T01:55:17.614Z,101589.11
2019-05-14T02:05:21.791Z,101590.68
2019-05-14T02:15:37.161Z,101585.49
2019-05-14T02:25:31.959Z,101567.80
2019-05-14T02:35:35.850Z,101564.72
2019-05-14T02:45:58.636Z,101567.03
2019-05-14T02:55:45.381Z,101574.09
2019-05-14T03:05:49.733Z,101571.47
2019-05-14T03:15:53.520Z,101564.17
2019-05-14T03:26:00.096Z,101558.53
2019-05-14T03:36:09.442Z,101563.45
2019-05-14T03:46:09.704Z,101563.64
2019-05-14T03:56:12.999Z,101561.05
2019-05-14T04:06:19.182Z,101550.98
2019-05-14T04:16:22.725Z,101553.13
2019-05-14T04:26:26.310Z,101552.59
2019-05-14T04:36:30.366Z,101527.17
2019-05-14T04:46:34.049Z,101533.81
2019-05-14T04:56:39.796Z,101536.05
2019-05-14T05:06:42.964Z,101531.16
2019-05-14T05:16:49.122Z,101529.06
2019-05-14T05:26:52.787Z,101522.70
2019-05-14T05:36:58.993Z,101520.19
2019-05-14T05:47:01.702Z,101516.71
2019-05-14T05:57:05.577Z,101508.80
2019-05-14T06:07:09.197Z,101494.56
2019-05-14T06:17:12.776Z,101493.69
2019-05-14T06:27:18.221Z,101497.69
2019-05-14T06:37:21.670Z,101494.14
2019-05-14T06:47:25.246Z,101491.02
2019-05-14T06:57:28.862Z,101497.23
2019-05-14T07:07:32.468Z,101485.17
2019-05-14T07:17:38.411Z,101494.87
2019-05-14T07:27:41.413Z,101483.73
2019-05-14T07:37:45.000Z,101494.87
2019-05-14T07:47:49.320Z,101494.05
2019-05-14T07:57:53.029Z,101495.87
2019-05-14T08:07:58.594Z,101473.13
2019-05-14T08:18:02.316Z,101456.46
2019-05-14T08:28:07.977Z,101441.73
2019-05-14T08:38:12.171Z,101432.23
2019-05-14T08:48:18.771Z,101430.41
2019-05-14T08:58:21.442Z,101427.63
2019-05-14T09:08:28.267Z,101416.81
2019-05-14T09:18:31.300Z,101430.42
2019-05-14T09:28:34.930Z,101430.09
2019-05-14T09:38:42.225Z,101431.47
2019-05-14T09:48:44.170Z,101430.62
2019-05-14T09:58:49.673Z,101429.31
2019-05-14T10:08:53.078Z,101428.39
2019-05-14T10:18:56.513Z,101429.70
2019-05-14T10:29:01.702Z,101414.16
2019-05-14T10:39:09.379Z,101415.43
2019-05-14T10:49:22.631Z,101403.44
2019-05-14T10:59:18.396Z,101392.81
2019-05-14T11:09:22.177Z,101385.77
2019-05-14T11:19:28.037Z,101386.66
2019-05-14T11:29:31.107Z,101386.22
2019-05-14T11:39:34.696Z,101378.63
2019-05-14T11:49:38.275Z,101386.25
2019-05-14T11:59:41.867Z,101362.70
2019-05-14T12:09:45.466Z,101364.94
2019-05-14T12:19:49.088Z,101356.94
2019-05-14T12:29:53.008Z,101352.03
2019-05-14T12:39:58.635Z,101348.03
2019-05-14T12:50:01.900Z,101340.97
2019-05-14T13:00:09.005Z,101322.61
2019-05-14T13:10:13.678Z,101322.44
2019-05-14T13:20:18.548Z,101328.01
2019-05-14T13:30:22.432Z,101310.09
2019-05-14T13:40:28.273Z,101308.41
2019-05-14T13:50:31.320Z,101297.41
2019-05-14T14:00:34.921Z,101283.70
2019-05-14T14:10:45.132Z,101275.30
2019-05-14T14:20:44.030Z,101277.53
2019-05-14T14:30:49.171Z,101265.10
2019-05-14T14:40:52.998Z,101260.16
2019-05-14T14:50:58.600Z,101259.73
2019-05-14T15:01:01.907Z,101258.00
2019-05-14T15:11:08.296Z,101245.66
2019-05-14T15:21:11.094Z,101240.77
2019-05-14T15:31:14.734Z,101233.05
2019-05-14T15:41:20.085Z,101223.20
2019-05-14T15:51:23.613Z,101225.55
2019-05-14T16:01:28.554Z,101227.31
2019-05-14T16:11:32.609Z,101217.64
2019-05-14T16:21:38.632Z,101198.57
2019-05-14T16:31:43.384Z,101191.92
2019-05-14T16:41:48.977Z,101195.44
2019-05-14T16:51:52.443Z,101191.02
2019-05-14T17:01:58.461Z,101188.78
2019-05-14T17:12:01.675Z,101195.87
2019-05-14T17:22:23.340Z,101191.84
2019-05-14T17:32:10.638Z,101182.89
2019-05-14T17:42:14.302Z,101178.84
2019-05-14T17:52:21.752Z,101184.32
2019-05-14T18:02:23.283Z,101183.37
2019-05-14T18:12:30.075Z,101183.44
2019-05-14T18:22:32.204Z,101187.50
2019-05-14T18:32:35.820Z,101183.48
2019-05-14T18:42:39.458Z,101183.02
2019-05-14T18:52:43.036Z,101183.88
2019-05-14T19:02:48.249Z,101178.08
2019-05-14T19:12:52.000Z,101187.78
2019-05-14T19:22:55.574Z,101179.40
2019-05-14T19:32:59.179Z,101173.92
2019-05-14T19:43:02.754Z,101159.02
2019-05-14T19:53:08.915Z,101156.61
2019-05-14T20:03:11.686Z,101153.82
2019-05-14T20:13:15.275Z,101156.21
2019-05-14T20:33:22.231Z,101141.76
2019-05-14T20:43:26.137Z,101136.93
2019-05-14T20:53:29.759Z,101132.84
2019-05-14T21:03:33.373Z,101136.30
2019-05-14T21:13:37.016Z,101127.38
2019-05-14T21:23:40.591Z,101122.44
2019-05-14T21:33:44.462Z,101115.75
2019-05-14T21:43:49.283Z,101105.10
2019-05-14T21:53:53.072Z,101104.59
2019-05-14T22:03:59.149Z,101084.95
2019-05-14T22:14:02.521Z,101081.63
2019-05-14T22:24:06.252Z,101087.05
2019-05-14T22:34:09.983Z,101075.83
2019-05-14T22:44:13.716Z,101069.28
2019-05-14T22:54:17.721Z,101061.33
2019-05-14T23:04:22.857Z,101055.88
2019-05-14T23:14:28.207Z,101041.20
2019-05-14T23:24:32.015Z,101039.81
2019-05-14T23:34:37.845Z,101027.34
2019-05-14T23:44:40.899Z,101015.38
2019-05-14T23:54:44.478Z,101006.87
